Time,TemperatureF,DewpointF,PressureIn,WindDirection,WindDirectionDegrees,WindSpeedMPH,WindSpeedGustMPH,Humidity,HourlyPrecipIn,Conditions,Clouds,dailyrainin,SoftwareType,DateUTC
2013-08-16 00:08:00,54.4,49.6,29.98,North,0,0.0,0.0,84,0.00,,,0.00,WUHU216HW,2013-08-16 04:08:00,
2013-08-16 00:23:00,54.4,49.6,29.97,NW,315,0.5,0.9,84,0.00,,,0.00,WUHU216HW,2013-08-16 04:23:00,
2013-08-16 00:38:00,54.0,49.6,29.97,North,0,0.0,0.0,85,0.00,,,0.00,WUHU216HW,2013-08-16 04:38:00,
2013-08-16 00:53:00,53.5,49.3,29.97,ENE,59,0.4,0.9,86,0.00,,,0.00,WUHU216HW,2013-08-16 04:53:00,
2013-08-16 01:08:00,53.1,49.0,29.97,NNW,338,0.2,0.2,86,0.00,,,0.00,WUHU216HW,2013-08-16 05:08:00,
2013-08-16 01:23:00,53.1,49.0,29.96,North,0,0.0,0.0,86,0.00,,,0.00,WUHU216HW,2013-08-16 05:23:00,
2013-08-16 01:39:00,52.7,48.6,29.96,NNW,338,0.5,0.7,86,0.00,,,0.00,WUHU216HW,2013-08-16 05:39:00,
2013-08-16 01:54:00,52.4,48.2,29.96,North,0,0.0,0.0,86,0.00,,,0.00,WUHU216HW,2013-08-16 05:54:00,
2013-08-16 02:09:00,52.2,48.1,29.96,NW,306,0.9,1.1,86,0.00,,,0.00,WUHU216HW,2013-08-16 06:09:00,
2013-08-16 02:24:00,52.2,48.1,29.97,WNW,293,0.6,1.1,86,0.00,,,0.00,WUHU216HW,2013-08-16 06:24:00,
2013-08-16 02:39:00,52.2,48.1,29.97,NW,315,0.3,0.4,86,0.00,,,0.00,WUHU216HW,2013-08-16 06:39:00,
2013-08-16 02:54:00,51.8,48.1,29.97,North,0,0.0,0.0,87,0.00,,,0.00,WUHU216HW,2013-08-16 06:54:00,
2013-08-16 03:09:00,51.5,47.7,29.97,North,0,0.0,0.0,87,0.00,,,0.00,WUHU216HW,2013-08-16 07:09:00,
2013-08-16 03:24:00,51.5,47.7,29.97,North,0,0.0,0.0,87,0.00,,,0.00,WUHU216HW,2013-08-16 07:24:00,
2013-08-16 03:28:00,51.5,47.7,29.97,North,0,0.0,0.0,87,0.00,,,0.00,WUHU216HW,2013-08-16 07:28:00,
2013-08-16 03:43:00,51.5,48.0,29.97,North,0,0.0,0.0,88,0.00,,,0.00,WUHU216HW,2013-08-16 07:43:00,
2013-08-16 03:58:00,51.1,47.6,29.97,North,0,0.0,0.0,88,0.00,,,0.00,WUHU216HW,2013-08-16 07:58:00,
2013-08-16 04:13:00,51.1,47.6,29.97,North,0,0.0,0.0,88,0.00,,,0.00,WUHU216HW,2013-08-16 08:13:00,
2013-08-16 04:28:00,50.9,47.4,29.97,NW,315,0.6,0.9,88,0.00,,,0.00,WUHU216HW,2013-08-16 08:28:00,
2013-08-16 04:43:00,50.8,47.3,29.97,NW,315,0.4,0.7,88,0.00,,,0.00,WUHU216HW,2013-08-16 08:43:00,
2013-08-16 04:58:00,50.8,47.3,29.97,North,0,0.0,0.0,88,0.00,,,0.00,WUHU216HW,2013-08-16 08:58:00,
2013-08-16 05:13:00,50.6,47.1,29.97,North,0,0.0,0.0,88,0.00,,,0.00,WUHU216HW,2013-08-16 09:13:00,
2013-08-16 05:28:00,50.4,46.9,29.98,North,0,0.0,0.0,88,0.00,,,0.00,WUHU216HW,2013-08-16 09:28:00,
2013-08-16 05:43:00,50.4,46.9,29.98,North,0,0.0,0.0,88,0.00,,,0.00,WUHU216HW,2013-08-16 09:43:00,
2013-08-16 05:58:00,50.2,46.7,29.99,North,0,0.0,0.0,88,0.00,,,0.00,WUHU216HW,2013-08-16 09:58:00,
2013-08-16 06:13:00,50.2,46.7,29.99,North,0,0.0,0.0,88,0.00,,,0.00,WUHU216HW,2013-08-16 10:13:00,
2013-08-16 06:28:00,50.0,46.5,29.99,North,0,0.0,0.0,88,0.00,,,0.00,WUHU216HW,2013-08-16 10:28:00,
2013-08-16 06:43:00,50.2,46.7,29.99,North,0,0.0,0.0,88,0.00,,,0.00,WUHU216HW,2013-08-16 10:43:00,
2013-08-16 06:58:00,50.4,46.9,30.00,North,0,0.0,0.0,88,0.00,,,0.00,WUHU216HW,2013-08-16 10:58:00,
2013-08-16 07:13:00,50.8,47.6,29.99,North,0,0.0,0.0,89,0.00,,,0.00,WUHU216HW,2013-08-16 11:13:00,
2013-08-16 07:28:00,51.3,48.4,30.00,North,0,0.0,0.0,90,0.00,,,0.00,WUHU216HW,2013-08-16 11:28:00,
2013-08-16 07:43:00,52.2,49.6,30.00,North,359,0.4,0.7,91,0.00,,,0.00,WUHU216HW,2013-08-16 11:43:00,
2013-08-16 07:58:00,52.9,50.6,30.00,North,0,0.0,0.0,92,0.00,,,0.00,WUHU216HW,2013-08-16 11:58:00,
2013-08-16 08:13:00,55.8,53.5,30.00,ESE,118,0.5,1.1,92,0.00,,,0.00,WUHU216HW,2013-08-16 12:13:00,
2013-08-16 08:28:00,58.7,55.8,30.00,SSE,155,0.6,1.1,90,0.00,,,0.00,WUHU216HW,2013-08-16 12:28:00,
2013-08-16 08:43:00,59.4,55.5,30.00,ESE,102,0.6,1.6,87,0.00,,,0.00,WUHU216HW,2013-08-16 12:43:00,
2013-08-16 08:58:00,59.6,55.7,30.00,East,90,0.4,0.7,87,0.00,,,0.00,WUHU216HW,2013-08-16 12:58:00,
2013-08-16 09:13:00,59.0,55.2,30.00,East,90,0.4,0.7,87,0.00,,,0.00,WUHU216HW,2013-08-16 13:13:00,
2013-08-16 09:29:00,60.8,56.7,30.00,ENE,69,0.9,1.6,86,0.00,,,0.00,WUHU216HW,2013-08-16 13:29:00,
2013-08-16 09:44:00,64.8,59.2,30.00,ENE,66,1.3,2.5,82,0.00,,,0.00,WUHU216HW,2013-08-16 13:44:00,
2013-08-16 09:59:00,66.4,59.4,30.00,ENE,69,1.0,2.5,78,0.00,,,0.00,WUHU216HW,2013-08-16 13:59:00,
2013-08-16 10:14:00,68.9,60.3,30.00,ESE,123,1.0,2.5,74,0.00,,,0.00,WUHU216HW,2013-08-16 14:14:00,
2013-08-16 10:29:00,70.9,59.4,30.00,ESE,106,1.2,2.9,67,0.00,,,0.00,WUHU216HW,2013-08-16 14:29:00,
2013-08-16 10:44:00,72.4,57.7,30.00,ESE,117,0.9,2.2,60,0.00,,,0.00,WUHU216HW,2013-08-16 14:44:00,
2013-08-16 10:59:00,73.4,58.1,30.00,South,170,1.5,3.1,59,0.00,,,0.00,WUHU216HW,2013-08-16 14:59:00,
2013-08-16 11:14:00,75.2,59.0,30.00,ENE,66,1.6,3.4,57,0.00,,,0.00,WUHU216HW,2013-08-16 15:14:00,
2013-08-16 11:29:00,75.1,58.3,29.99,SSW,209,1.0,2.9,56,0.00,,,0.00,WUHU216HW,2013-08-16 15:29:00,
2013-08-16 11:44:00,75.2,58.0,29.99,SSW,199,1.0,3.4,55,0.00,,,0.00,WUHU216HW,2013-08-16 15:44:00,
2013-08-16 11:59:00,76.5,58.1,29.99,SE,129,1.0,2.0,53,0.00,,,0.00,WUHU216HW,2013-08-16 15:59:00,
2013-08-16 12:14:00,76.5,58.1,29.99,SE,130,1.3,2.9,53,0.00,,,0.00,WUHU216HW,2013-08-16 16:14:00,
2013-08-16 12:29:00,77.4,57.9,29.99,SE,125,1.5,2.7,51,0.00,,,0.00,WUHU216HW,2013-08-16 16:29:00,
2013-08-16 12:44:00,76.5,57.6,29.99,NE,47,0.8,1.8,52,0.00,,,0.00,WUHU216HW,2013-08-16 16:44:00,
2013-08-16 12:59:00,76.0,57.6,30.00,WNW,303,0.9,3.1,53,0.00,,,0.00,WUHU216HW,2013-08-16 16:59:00,
2013-08-16 13:14:00,75.4,58.6,29.99,East,80,0.6,1.1,56,0.00,,,0.00,WUHU216HW,2013-08-16 17:14:00,
2013-08-16 13:29:00,76.0,58.2,30.00,SSW,193,0.8,2.2,54,0.00,,,0.00,WUHU216HW,2013-08-16 17:29:00,
2013-08-16 13:44:00,76.0,57.6,30.00,SW,214,1.3,2.5,53,0.00,,,0.00,WUHU216HW,2013-08-16 17:44:00,
2013-08-16 13:59:00,76.3,57.4,29.99,SE,143,1.1,2.9,52,0.00,,,0.00,WUHU216HW,2013-08-16 17:59:00,
2013-08-16 14:14:00,77.4,57.4,30.00,East,99,1.7,3.8,50,0.00,,,0.00,WUHU216HW,2013-08-16 18:14:00,
2013-08-16 14:29:00,77.4,57.4,29.99,East,85,1.3,3.4,50,0.00,,,0.00,WUHU216HW,2013-08-16 18:29:00,
2013-08-16 14:44:00,76.7,57.8,30.00,South,186,0.8,3.1,52,0.00,,,0.00,WUHU216HW,2013-08-16 18:44:00,
2013-08-16 14:59:00,76.3,58.4,29.99,SSW,201,0.6,2.2,54,0.00,,,0.00,WUHU216HW,2013-08-16 18:59:00,
2013-08-16 15:14:00,75.6,59.3,30.00,WNW,284,0.9,2.5,57,0.00,,,0.00,WUHU216HW,2013-08-16 19:14:00,
2013-08-16 15:29:00,75.6,58.3,30.00,ESE,108,1.3,3.8,55,0.00,,,0.00,WUHU216HW,2013-08-16 19:29:00,
2013-08-16 15:44:00,75.1,57.8,30.00,SE,136,1.6,3.1,55,0.00,,,0.00,WUHU216HW,2013-08-16 19:44:00,
2013-08-16 15:59:00,74.9,58.6,29.99,SSE,155,1.3,4.0,57,0.00,,,0.00,WUHU216HW,2013-08-16 19:59:00,
2013-08-16 16:14:00,74.7,58.0,29.99,SE,143,1.0,2.5,56,0.00,,,0.00,WUHU216HW,2013-08-16 20:14:00,
2013-08-16 16:29:00,74.5,58.2,29.99,SSW,198,1.0,2.0,57,0.00,,,0.00,WUHU216HW,2013-08-16 20:29:00,
2013-08-16 16:44:00,74.3,57.6,29.99,SSE,153,1.2,2.7,56,0.00,,,0.00,WUHU216HW,2013-08-16 20:44:00,
2013-08-16 16:59:00,74.2,57.4,29.99,SE,142,1.1,2.9,56,0.00,,,0.00,WUHU216HW,2013-08-16 20:59:00,
2013-08-16 17:14:00,74.0,57.7,29.99,SSW,203,0.8,2.0,57,0.00,,,0.00,WUHU216HW,2013-08-16 21:14:00,
2013-08-16 17:29:00,73.4,58.7,29.99,WSW,253,0.8,2.0,60,0.00,,,0.00,WUHU216HW,2013-08-16 21:29:00,
2013-08-16 17:44:00,72.9,60.4,29.99,West,270,1.5,2.9,65,0.00,,,0.00,WUHU216HW,2013-08-16 21:44:00,
2013-08-16 17:59:00,71.6,59.7,29.99,West,270,1.4,2.0,66,0.00,,,0.00,WUHU216HW,2013-08-16 21:59:00,
2013-08-16 18:14:00,70.7,60.0,30.00,West,272,1.6,2.5,69,0.00,,,0.00,WUHU216HW,2013-08-16 22:14:00,
2013-08-16 18:29:00,69.7,59.8,30.00,West,279,1.6,1.8,71,0.00,,,0.00,WUHU216HW,2013-08-16 22:29:00,
2013-08-16 18:44:00,68.8,59.4,30.00,WNW,288,1.4,2.0,72,0.00,,,0.00,WUHU216HW,2013-08-16 22:44:00,
2013-08-16 18:59:00,68.0,58.7,30.01,WNW,293,0.7,1.1,72,0.00,,,0.00,WUHU216HW,2013-08-16 22:59:00,
2013-08-16 19:14:00,67.3,58.4,30.01,WNW,293,0.7,1.1,73,0.00,,,0.00,WUHU216HW,2013-08-16 23:14:00,
2013-08-16 19:29:00,67.0,58.1,30.02,North,0,0.0,0.0,73,0.00,,,0.00,WUHU216HW,2013-08-16 23:29:00,
2013-08-16 19:44:00,66.2,57.7,30.02,North,0,0.0,0.0,74,0.00,,,0.00,WUHU216HW,2013-08-16 23:44:00,
2013-08-16 19:59:00,65.5,57.0,30.03,WNW,287,0.8,1.8,74,0.00,,,0.00,WUHU216HW,2013-08-16 23:59:00,
2013-08-16 20:14:00,65.2,57.1,30.04,WNW,293,0.7,1.3,75,0.00,,,0.00,WUHU216HW,2013-08-17 00:14:00,
2013-08-16 20:29:00,64.6,56.9,30.04,WNW,293,0.7,1.1,76,0.00,,,0.00,WUHU216HW,2013-08-17 00:29:00,
2013-08-16 20:44:00,64.4,57.1,30.05,WNW,293,0.5,0.7,77,0.00,,,0.00,WUHU216HW,2013-08-17 00:44:00,
2013-08-16 20:59:00,63.9,56.5,30.05,East,94,0.5,0.9,77,0.00,,,0.00,WUHU216HW,2013-08-17 00:59:00,
2013-08-16 21:14:00,63.7,56.7,30.05,NNE,14,0.4,0.7,78,0.00,,,0.00,WUHU216HW,2013-08-17 01:14:00,
2013-08-16 21:29:00,63.0,55.6,30.05,WNW,303,0.9,1.3,77,0.00,,,0.00,WUHU216HW,2013-08-17 01:29:00,
2013-08-16 21:44:00,62.8,55.4,30.06,WNW,295,0.6,0.9,77,0.00,,,0.00,WUHU216HW,2013-08-17 01:44:00,
2013-08-16 21:59:00,62.1,55.2,30.07,North,0,0.0,0.0,78,0.00,,,0.00,WUHU216HW,2013-08-17 01:59:00,
2013-08-16 22:14:00,61.6,55.0,30.07,North,0,0.0,0.0,79,0.00,,,0.00,WUHU216HW,2013-08-17 02:14:00,
2013-08-16 22:29:00,61.0,54.9,30.07,North,0,0.0,0.0,80,0.00,,,0.00,WUHU216HW,2013-08-17 02:29:00,
2013-08-16 22:44:00,60.7,54.9,30.07,North,0,0.0,0.0,81,0.00,,,0.00,WUHU216HW,2013-08-17 02:44:00,
2013-08-16 22:59:00,60.1,54.4,30.07,WNW,296,0.7,1.1,81,0.00,,,0.00,WUHU216HW,2013-08-17 02:59:00,
2013-08-16 23:14:00,59.9,54.2,30.07,North,0,0.0,0.0,81,0.00,,,0.00,WUHU216HW,2013-08-17 03:14:00,
2013-08-16 23:29:00,59.2,53.7,30.07,WNW,293,0.8,1.1,82,0.00,,,0.00,WUHU216HW,2013-08-17 03:29:00,
2013-08-16 23:44:00,59.0,53.6,30.07,WNW,293,0.8,1.6,82,0.00,,,0.00,WUHU216HW,2013-08-17 03:44:00,
2013-08-16 23:59:00,58.7,53.6,30.08,North,0,0.0,0.0,83,0.00,,,0.00,WUHU216HW,2013-08-17 03:59:00,